createdAt,value
2023-12-14T00:01:09.893Z,1
2023-12-14T00:05:09.173Z,1
2023-12-14T00:10:08.434Z,1
2023-12-14T00:15:08.664Z,1
2023-12-14T00:20:08.958Z,1
2023-12-14T00:25:08.196Z,0
2023-12-14T00:30:08.447Z,0
2023-12-14T00:35:08.594Z,0
2023-12-14T00:40:08.882Z,0
2023-12-14T00:45:09.163Z,0
2023-12-14T00:50:08.401Z,0
2023-12-14T00:55:08.706Z,0
2023-12-14T01:00:08.885Z,0
2023-12-14T01:05:08.725Z,0
2023-12-14T01:10:09.073Z,0
2023-12-14T01:15:08.292Z,1
2023-12-14T01:20:08.650Z,1
2023-12-14T01:25:08.946Z,0
2023-12-14T01:30:08.088Z,0
2023-12-14T01:35:08.247Z,0
2023-12-14T01:40:08.374Z,0
2023-12-14T01:45:08.550Z,0
2023-12-14T01:50:10.201Z,0
2023-12-14T01:55:08.440Z,1
2023-12-14T02:00:08.676Z,1
2023-12-14T02:05:08.255Z,0
2023-12-14T02:10:08.522Z,0
2023-12-14T02:15:08.640Z,0
2023-12-14T02:20:08.904Z,0
2023-12-14T02:25:08.173Z,0
2023-12-14T02:30:08.383Z,0
2023-12-14T02:35:08.689Z,0
2023-12-14T02:40:08.912Z,0
2023-12-14T02:45:09.114Z,0
2023-12-14T02:50:08.294Z,0
2023-12-14T02:55:08.490Z,0
2023-12-14T03:00:08.656Z,0
2023-12-14T03:05:10.835Z,0
2023-12-14T03:10:08.304Z,0
2023-12-14T03:15:09.991Z,0
2023-12-14T03:20:08.183Z,0
2023-12-14T03:25:08.386Z,1
2023-12-14T03:30:08.665Z,1
2023-12-14T03:35:08.926Z,0
2023-12-14T03:40:08.164Z,0
2023-12-14T03:45:08.433Z,0
2023-12-14T03:50:08.757Z,0
2023-12-14T03:55:08.904Z,0
2023-12-14T04:00:09.129Z,0
2023-12-14T04:05:08.371Z,0
2023-12-14T04:10:08.571Z,0
2023-12-14T04:15:08.737Z,0
2023-12-14T04:20:09.215Z,0
2023-12-14T04:25:08.570Z,0
2023-12-14T04:30:08.810Z,0
2023-12-14T04:35:09.076Z,0
2023-12-14T04:40:02.485Z,0
2023-12-14T04:45:02.729Z,0
2023-12-14T04:50:03.057Z,0
2023-12-14T04:55:02.331Z,0
2023-12-14T05:00:02.698Z,0
2023-12-14T05:05:03.095Z,0
2023-12-14T05:10:02.418Z,0
2023-12-14T05:15:02.698Z,0
2023-12-14T05:20:03.057Z,0
2023-12-14T05:25:02.466Z,0
2023-12-14T05:30:02.707Z,0
2023-12-14T05:35:03.069Z,0
2023-12-14T05:40:02.466Z,0
2023-12-14T05:45:02.737Z,1
2023-12-14T05:50:03.278Z,1
2023-12-14T05:55:04.914Z,0
2023-12-14T06:00:02.580Z,0
2023-12-14T06:05:02.991Z,0
2023-12-14T06:10:02.447Z,0
2023-12-14T06:15:02.760Z,0
2023-12-14T06:20:03.120Z,0
2023-12-14T06:25:02.582Z,3
2023-12-14T06:30:02.736Z,3
2023-12-14T06:35:03.006Z,3
2023-12-14T06:40:02.346Z,3
2023-12-14T06:45:02.817Z,3
2023-12-14T06:50:03.194Z,3
2023-12-14T06:55:02.523Z,3
2023-12-14T07:00:02.859Z,3
2023-12-14T07:05:03.262Z,8
2023-12-14T07:10:02.632Z,8
2023-12-14T07:15:02.981Z,27
2023-12-14T07:20:02.252Z,27
2023-12-14T07:25:02.648Z,43
2023-12-14T07:30:02.963Z,43
2023-12-14T07:35:02.343Z,52
2023-12-14T07:40:02.626Z,52
2023-12-14T07:45:02.987Z,64
2023-12-14T07:50:02.373Z,64
2023-12-14T07:55:02.667Z,93
2023-12-14T08:00:03.005Z,93
2023-12-14T08:05:02.356Z,188
2023-12-14T08:10:02.676Z,188
2023-12-14T08:15:02.916Z,281
2023-12-14T08:20:02.271Z,281
2023-12-14T08:25:02.603Z,454
2023-12-14T08:30:02.889Z,454
2023-12-14T08:35:03.384Z,501
2023-12-14T08:40:02.741Z,501
2023-12-14T08:45:03.133Z,580
2023-12-14T08:50:02.632Z,580
2023-12-14T08:55:03.276Z,733
2023-12-14T09:00:02.732Z,733
2023-12-14T09:05:03.196Z,955
2023-12-14T09:10:02.630Z,955
2023-12-14T09:15:03.003Z,1000
2023-12-14T09:20:02.299Z,1000
2023-12-14T09:25:02.568Z,1000
2023-12-14T09:30:02.968Z,1000
2023-12-14T09:35:02.363Z,1000
2023-12-14T09:40:02.707Z,1000
2023-12-14T09:45:03.182Z,1000
2023-12-14T09:50:02.433Z,1000
2023-12-14T09:55:02.747Z,1000
2023-12-14T10:00:03.353Z,1000
2023-12-14T10:05:02.788Z,1000
2023-12-14T10:10:03.106Z,1000
2023-12-14T10:15:02.499Z,1000
2023-12-14T10:20:02.900Z,1000
2023-12-14T10:25:03.340Z,844
2023-12-14T10:30:02.618Z,1000
2023-12-14T10:35:03.093Z,1000
2023-12-14T10:40:02.583Z,1000
2023-12-14T10:50:02.288Z,1000
2023-12-14T10:55:02.603Z,1000
2023-12-14T11:00:02.972Z,1000
2023-12-14T11:05:02.466Z,1000
2023-12-14T11:10:02.915Z,1000
2023-12-14T11:15:03.253Z,1000
2023-12-14T11:20:02.704Z,1000
2023-12-14T11:25:02.992Z,1000
2023-12-14T11:30:02.293Z,1000
2023-12-14T11:35:02.598Z,1000
2023-12-14T11:40:02.918Z,1000
2023-12-14T11:45:03.252Z,1000
2023-12-14T11:50:02.727Z,1000
2023-12-14T11:55:03.126Z,1000
2023-12-14T12:00:02.460Z,1000
2023-12-14T12:05:03.214Z,1000
2023-12-14T12:10:02.634Z,1000
2023-12-14T12:15:02.996Z,1000
2023-12-14T12:20:02.645Z,1000
2023-12-14T12:25:12.022Z,1000
2023-12-14T12:30:02.831Z,1000
2023-12-14T12:35:03.245Z,1000
2023-12-14T12:40:02.583Z,1000
2023-12-14T12:45:02.864Z,1000
2023-12-14T12:50:03.269Z,788
2023-12-14T12:55:02.630Z,844
2023-12-14T13:00:02.946Z,872
2023-12-14T13:05:02.402Z,954
2023-12-14T13:10:08.203Z,899
2023-12-14T13:15:02.266Z,927
2023-12-14T13:20:02.610Z,982
2023-12-14T13:25:02.981Z,982
2023-12-14T13:30:02.277Z,980
2023-12-14T13:35:02.694Z,980
2023-12-14T13:40:03.260Z,954
2023-12-14T13:45:02.486Z,954
2023-12-14T13:50:02.701Z,844
2023-12-14T13:55:03.076Z,844
2023-12-14T14:00:02.497Z,816
2023-12-14T14:05:03.019Z,816
2023-12-14T14:10:02.335Z,721
2023-12-14T14:15:02.562Z,721
2023-12-14T14:20:02.940Z,747
2023-12-14T14:25:02.271Z,747
2023-12-14T14:30:02.590Z,701
2023-12-14T14:35:02.976Z,701
2023-12-14T14:40:02.372Z,896
2023-12-14T14:45:02.678Z,896
2023-12-14T14:50:02.982Z,725
2023-12-14T14:55:02.223Z,725
2023-12-14T15:00:02.522Z,599
2023-12-14T15:05:02.862Z,682
2023-12-14T15:10:03.129Z,682
2023-12-14T15:15:02.341Z,378
2023-12-14T15:20:02.718Z,378
2023-12-14T15:25:03.099Z,204
2023-12-14T15:30:02.417Z,204
2023-12-14T15:35:02.793Z,104
2023-12-14T15:40:03.006Z,104
2023-12-14T15:45:02.555Z,46
2023-12-14T15:50:02.890Z,32
2023-12-14T15:55:02.172Z,22
2023-12-14T16:00:02.465Z,13
2023-12-14T16:05:03.026Z,13
2023-12-14T16:10:02.499Z,3
2023-12-14T16:15:02.748Z,3
2023-12-14T16:20:03.189Z,1
2023-12-14T16:25:02.550Z,1
2023-12-14T16:30:02.906Z,1
2023-12-14T16:35:03.347Z,1
2023-12-14T16:40:02.786Z,0
2023-12-14T16:45:03.117Z,0
2023-12-14T16:50:02.509Z,0
2023-12-14T16:55:03.348Z,0
2023-12-14T17:00:02.717Z,0
2023-12-14T17:05:04.224Z,0
2023-12-14T17:10:02.870Z,0
2023-12-14T17:15:03.150Z,0
2023-12-14T17:20:02.482Z,0
2023-12-14T17:25:05.313Z,0
2023-12-14T17:30:02.598Z,0
2023-12-14T17:35:02.935Z,0
2023-12-14T17:40:02.374Z,0
2023-12-14T17:45:02.642Z,0
2023-12-14T17:50:02.868Z,0
2023-12-14T17:55:05.180Z,0
2023-12-14T18:00:02.770Z,0
2023-12-14T18:05:03.083Z,0
2023-12-14T18:10:02.384Z,0
2023-12-14T18:15:02.737Z,0
2023-12-14T18:20:02.997Z,0
2023-12-14T18:25:02.306Z,0
2023-12-14T18:30:02.560Z,0
2023-12-14T18:35:02.861Z,0
2023-12-14T18:40:03.122Z,0
2023-12-14T18:45:02.430Z,0
2023-12-14T18:50:02.758Z,0
2023-12-14T18:55:03.091Z,1
2023-12-14T19:00:02.406Z,1
2023-12-14T19:05:02.809Z,0
2023-12-14T19:10:06.284Z,0
2023-12-14T19:15:03.083Z,0
2023-12-14T19:20:02.558Z,0
2023-12-14T19:25:02.894Z,0
2023-12-14T19:30:03.212Z,0
2023-12-14T19:35:02.511Z,0
2023-12-14T19:40:02.925Z,0
2023-12-14T19:45:02.371Z,0
2023-12-14T19:50:02.662Z,0
2023-12-14T19:55:03.014Z,0
2023-12-14T20:00:02.159Z,0
2023-12-14T20:05:02.542Z,1
2023-12-14T20:10:04.321Z,1
2023-12-14T20:15:03.099Z,0
2023-12-14T20:20:02.529Z,0
2023-12-14T20:25:02.844Z,0
2023-12-14T20:30:03.194Z,0
2023-12-14T20:35:02.536Z,0
2023-12-14T20:40:11.650Z,0
2023-12-14T20:45:02.886Z,0
2023-12-14T20:50:03.221Z,0
2023-12-14T20:55:02.570Z,0
2023-12-14T21:00:02.874Z,0
2023-12-14T21:05:03.166Z,0
2023-12-14T21:10:02.350Z,0
2023-12-14T21:15:02.584Z,0
2023-12-14T21:20:02.873Z,0
2023-12-14T21:25:03.233Z,0
2023-12-14T21:30:02.484Z,0
2023-12-14T21:35:02.821Z,0
2023-12-14T21:40:03.125Z,0
2023-12-14T21:45:02.277Z,0
2023-12-14T21:50:02.709Z,0
2023-12-14T21:55:03.020Z,0
2023-12-14T22:00:02.373Z,0
2023-12-14T22:05:02.829Z,0
2023-12-14T22:10:03.132Z,0
2023-12-14T22:15:02.538Z,0
2023-12-14T22:20:02.929Z,0
2023-12-14T22:25:04.462Z,0
2023-12-14T22:30:02.740Z,0
2023-12-14T22:35:03.208Z,0
2023-12-14T22:40:02.531Z,0
2023-12-14T22:45:02.882Z,0
2023-12-14T22:50:03.266Z,0
2023-12-14T22:55:02.652Z,0
2023-12-14T23:00:02.935Z,0
2023-12-14T23:05:15.138Z,0
2023-12-14T23:10:08.281Z,0
2023-12-14T23:15:08.501Z,0
2023-12-14T23:20:08.807Z,0
2023-12-14T23:25:08.975Z,0
2023-12-14T23:30:08.227Z,0
2023-12-14T23:35:08.409Z,0
2023-12-14T23:40:08.603Z,0
2023-12-14T23:45:08.759Z,0
2023-12-14T23:50:09.051Z,0
2023-12-14T23:55:08.240Z,0
